Time;durP1;ratioP1;P1;durP2;ratioP2;P2;SDS_P1;SDS_P2;PMS_P1;PMS_P2;Temp;Humidity;BMP_temperature;BMP_pressure;BME280_temperature;BME280_humidity;BME280_pressure;Samples;Min_cycle;Max_cycle;Signal;HPM_P1;HPM_P2
2023/09/27 00:00:45;;;;;;;;;;;19.60;81.80;;;19.80;50.92;99090.91;5027602;27;115556;-83
2023/09/27 00:03:14;;;;;;;;;;;19.60;82.00;;;19.77;50.97;99094.44;5030476;27;114436;-82
2023/09/27 00:05:40;;;;;;;;;;;19.60;82.20;;;19.75;51.05;99101.59;5021751;27;124788;-81
2023/09/27 00:08:06;;;;;;;;;;;19.60;82.40;;;19.71;51.37;99104.28;5028414;27;124730;-82
2023/09/27 00:10:33;;;;;;;;;;;19.50;82.50;;;19.67;51.15;99106.22;5028880;27;114333;-82
2023/09/27 00:13:02;;;;;;;;;;;19.50;82.60;;;19.64;51.44;99104.13;5028467;27;113895;-83
2023/09/27 00:15:31;;;;;;;;;;;19.40;82.70;;;19.60;51.37;99101.22;5028131;27;124350;-82
2023/09/27 00:17:58;;;;;;;;;;;19.40;83.00;;;19.58;51.58;99099.94;5030454;27;123818;-83
2023/09/27 00:20:24;;;;;;;;;;;19.40;83.20;;;19.55;51.51;99101.50;5030668;27;114323;-82
2023/09/27 00:22:51;;;;;;;;;;;19.40;83.40;;;19.55;51.66;99100.69;5025369;27;114199;-83
2023/09/27 00:25:17;;;;;;;;;;;19.40;83.50;;;19.52;51.80;99107.84;5016806;27;124433;-81
2023/09/27 00:27:44;;;;;;;;;;;19.30;83.60;;;19.50;51.78;99112.19;5028313;27;124039;-83
2023/09/27 00:30:13;;;;;;;;;;;19.30;83.70;;;19.48;51.78;99114.53;5028459;27;114354;-85
2023/09/27 00:32:41;;;;;;;;;;;19.30;83.90;;;19.45;51.67;99106.84;5032153;27;113924;-83
2023/09/27 00:35:12;;;;;;;;;;;19.20;84.00;;;19.43;51.91;99099.63;5021807;27;124133;-83
2023/09/27 00:37:38;;;;;;;;;;;19.20;84.20;;;19.42;51.82;99099.97;5020453;27;123952;-83
2023/09/27 00:40:10;;;;;;;;;;;19.20;84.30;;;19.41;51.76;99109.56;5027597;27;114481;-84
2023/09/27 00:42:37;;;;;;;;;;;19.20;84.40;;;19.39;52.15;99095.91;5028737;27;114214;-82
2023/09/27 00:45:04;;;;;;;;;;;19.20;84.60;;;19.38;52.01;99099.09;5027307;27;124199;-83
2023/09/27 00:47:31;;;;;;;;;;;19.20;84.70;;;19.38;52.09;99091.50;5030581;27;123544;-81
2023/09/27 00:49:57;;;;;;;;;;;19.10;84.70;;;19.36;52.32;99099.44;5026991;27;115966;-82
2023/09/27 00:52:27;;;;;;;;;;;19.10;84.90;;;19.35;52.24;99089.44;5024297;27;114963;-82
2023/09/27 00:54:53;;;;;;;;;;;19.10;85.00;;;19.33;52.11;99094.59;5027143;28;124440;-81
2023/09/27 00:57:19;;;;;;;;;;;19.10;85.10;;;19.31;52.24;99093.31;5027647;27;123909;-83
2023/09/27 00:59:46;;;;;;;;;;;19.10;85.20;;;19.29;52.30;99081.66;5056861;27;114248;-85
2023/09/27 01:02:12;;;;;;;;;;;19.00;85.20;;;19.26;52.23;99090.78;5028050;28;113926;-81
2023/09/27 01:04:42;;;;;;;;;;;19.00;85.40;;;19.23;52.43;99089.53;5028102;27;124138;-82
2023/09/27 01:07:08;;;;;;;;;;;19.00;85.40;;;19.20;52.37;99093.06;5012632;28;123979;-85
2023/09/27 01:09:34;;;;;;;;;;;19.00;85.60;;;19.18;52.45;99095.41;5022687;27;114594;-82
2023/09/27 01:12:00;;;;;;;;;;;18.90;85.50;;;19.14;52.67;99097.31;5026461;27;113788;-84
2023/09/27 01:14:29;;;;;;;;;;;18.90;85.80;;;19.07;52.57;99100.75;5029483;28;124028;-79
2023/09/27 01:17:07;;;;;;;;;;;18.90;85.90;;;19.00;52.69;99106.19;5030957;28;123551;-82
2023/09/27 01:19:34;;;;;;;;;;;18.80;85.80;;;18.97;52.57;99101.31;5015097;27;114407;-82
2023/09/27 01:22:00;;;;;;;;;;;18.80;85.90;;;18.96;52.65;99096.88;5027797;27;114368;-83
2023/09/27 01:24:30;;;;;;;;;;;18.70;86.00;;;18.93;52.72;99109.59;5012945;27;124139;-82
2023/09/27 01:26:57;;;;;;;;;;;18.70;86.80;;;18.91;52.80;99114.78;5029953;28;123568;-83
2023/09/27 01:29:23;;;;;;;;;;;18.70;86.20;;;18.87;53.01;99102.66;5026190;27;114774;-84
2023/09/27 01:31:52;;;;;;;;;;;18.70;86.30;;;18.84;53.00;99094.16;5027155;27;113750;-83
2023/09/27 01:34:18;;;;;;;;;;;18.70;86.40;;;18.80;53.08;99099.66;5029635;27;123963;-83
2023/09/27 01:36:45;;;;;;;;;;;18.60;86.50;;;18.76;53.18;99102.38;5031277;27;124753;-82
2023/09/27 01:39:11;;;;;;;;;;;18.60;86.70;;;18.75;53.22;99103.56;5030385;27;115323;-83
2023/09/27 01:41:40;;;;;;;;;;;18.50;86.80;;;18.73;53.43;99117.06;5031878;27;115168;-83
2023/09/27 01:44:06;;;;;;;;;;;18.60;87.00;;;18.71;53.18;99111.00;5018865;27;123912;-81
2023/09/27 01:46:32;;;;;;;;;;;18.50;87.10;;;18.70;53.37;99108.56;5027315;27;123241;-84
2023/09/27 01:48:58;;;;;;;;;;;18.50;87.20;;;18.69;53.43;99113.34;5030288;27;114705;-83
2023/09/27 01:51:25;;;;;;;;;;;18.50;87.30;;;18.68;53.36;99105.31;5033869;27;113754;-84
2023/09/27 01:53:53;;;;;;;;;;;18.50;87.40;;;18.67;53.35;99114.88;5042003;27;123908;-82
2023/09/27 01:56:22;;;;;;;;;;;18.40;87.50;;;18.65;53.54;99118.03;5019674;27;124034;-83
2023/09/27 01:58:48;;;;;;;;;;;18.40;87.60;;;18.62;53.58;99117.94;5030426;27;114382;-84
2023/09/27 02:01:14;;;;;;;;;;;18.40;87.80;;;18.58;53.68;99123.44;5029889;27;113650;-84
2023/09/27 02:03:42;;;;;;;;;;;18.40;87.90;;;18.55;53.67;99113.78;5032540;27;124104;-84
2023/09/27 02:06:08;;;;;;;;;;;18.30;87.80;;;18.55;53.65;99119.38;5032435;27;124147;-84
2023/09/27 02:08:35;;;;;;;;;;;18.30;87.90;;;18.53;53.77;99116.09;5029888;27;114569;-83
2023/09/27 02:11:01;;;;;;;;;;;18.30;88.00;;;18.51;53.63;99124.06;5040262;27;112707;-85
2023/09/27 02:13:27;;;;;;;;;;;18.30;88.10;;;18.50;53.88;99128.03;5025219;27;124569;-85
2023/09/27 02:15:57;;;;;;;;;;;18.30;88.30;;;18.49;53.86;99126.41;5029854;27;124220;-83
2023/09/27 02:18:25;;;;;;;;;;;18.30;88.40;;;18.48;53.83;99129.53;5029514;27;114531;-83
2023/09/27 02:20:51;;;;;;;;;;;18.30;88.50;;;18.46;53.89;99129.91;5032890;27;113034;-83
2023/09/27 02:23:17;;;;;;;;;;;18.20;88.50;;;18.44;53.95;99126.66;5023260;27;124202;-84
2023/09/27 02:25:44;;;;;;;;;;;18.20;88.50;;;18.43;53.85;99119.44;5030513;27;124192;-83
2023/09/27 02:28:10;;;;;;;;;;;18.20;88.60;;;18.40;53.91;99124.91;5029732;28;115528;-83
2023/09/27 02:30:36;;;;;;;;;;;18.20;88.70;;;18.37;54.30;99120.84;5030393;27;114760;-84
2023/09/27 02:33:05;;;;;;;;;;;18.10;88.60;;;18.36;54.02;99124.03;5065489;27;124143;-85
2023/09/27 02:35:31;;;;;;;;;;;18.10;88.60;;;18.34;53.93;99121.56;5029825;27;123885;-82
2023/09/27 02:37:57;;;;;;;;;;;18.10;88.60;;;18.34;53.95;99124.38;5030075;27;114410;-82
2023/09/27 02:40:24;;;;;;;;;;;18.10;88.60;;;18.33;53.83;99122.75;5030472;27;114041;-84
2023/09/27 02:42:52;;;;;;;;;;;18.10;88.70;;;18.29;54.01;99119.03;5028885;27;124309;-82
2023/09/27 02:45:18;;;;;;;;;;;18.10;88.70;;;18.25;54.06;99110.53;5032128;27;123595;-83
2023/09/27 02:47:46;;;;;;;;;;;18.00;88.70;;;18.23;54.01;99106.47;5035720;27;113334;-83
2023/09/27 02:50:13;;;;;;;;;;;18.00;88.70;;;18.20;54.20;99107.19;5029733;27;113951;-84
2023/09/27 02:52:39;;;;;;;;;;;18.00;88.80;;;18.19;54.17;99113.94;5027797;27;124216;-83
2023/09/27 02:55:08;;;;;;;;;;;18.00;89.00;;;18.17;54.18;99114.31;5025300;28;123975;-84
2023/09/27 02:57:35;;;;;;;;;;;17.90;88.90;;;18.13;54.33;99110.56;5057570;27;114560;-83
2023/09/27 03:00:03;;;;;;;;;;;17.90;89.10;;;18.08;54.44;99114.47;5034400;27;113855;-83
2023/09/27 03:02:32;;;;;;;;;;;17.90;89.20;;;18.03;54.44;99108.31;5031640;28;124085;-84
2023/09/27 03:04:59;;;;;;;;;;;17.80;89.30;;;17.98;54.48;99103.78;5030231;27;124184;-83
2023/09/27 03:07:25;;;;;;;;;;;17.80;89.40;;;17.96;54.51;99097.72;5031601;27;114910;-83
2023/09/27 03:09:52;;;;;;;;;;;17.80;89.30;;;17.96;54.43;99097.72;5030334;27;113802;-83
2023/09/27 03:12:18;;;;;;;;;;;16.40;88.10;;;17.95;54.58;99101.69;5015413;27;124821;-83
2023/09/27 03:14:44;;;;;;;;;;;17.70;89.40;;;17.95;54.64;99096.09;5029751;27;123909;-84
2023/09/27 03:17:10;;;;;;;;;;;17.70;89.60;;;17.95;54.57;99100.88;5028703;27;115319;-81
2023/09/27 03:19:36;;;;;;;;;;;17.70;89.60;;;17.94;54.59;99100.03;5030133;27;115187;-82
2023/09/27 03:22:03;;;;;;;;;;;17.70;89.60;;;17.93;54.62;99106.81;5040422;27;124147;-83
2023/09/27 03:24:30;;;;;;;;;;;17.70;89.60;;;17.93;54.62;99109.63;5011390;27;123899;-85
2023/09/27 03:26:57;;;;;;;;;;;17.70;89.70;;;17.92;54.50;99108.00;5029619;27;113745;-84
2023/09/27 03:29:23;;;;;;;;;;;17.70;89.70;;;17.91;54.52;99111.94;5029250;27;114008;-84
2023/09/27 03:31:49;;;;;;;;;;;17.70;89.80;;;17.91;54.60;99111.13;5029729;28;124235;-86
2023/09/27 03:34:16;;;;;;;;;;;17.70;89.80;;;17.89;54.60;99114.28;5029655;27;123776;-84
2023/09/27 03:36:44;;;;;;;;;;;17.60;89.80;;;17.87;54.70;99106.25;5029044;27;114343;-86
2023/09/27 03:39:14;;;;;;;;;;;17.60;89.90;;;17.86;54.68;99098.22;5029334;27;113831;-85
2023/09/27 03:41:41;;;;;;;;;;;17.60;89.90;;;17.85;54.64;99102.19;5030731;27;124036;-85
2023/09/27 03:44:07;;;;;;;;;;;17.60;90.00;;;17.83;54.66;99108.13;5017990;27;124270;-86
2023/09/27 03:46:36;;;;;;;;;;;17.60;90.00;;;17.82;54.86;99105.69;5027347;27;114491;-84
2023/09/27 03:49:03;;;;;;;;;;;17.60;90.00;;;17.81;54.75;99115.22;5029500;27;113785;-84
2023/09/27 03:51:32;;;;;;;;;;;17.50;90.00;;;17.79;54.67;99114.78;5028741;27;124220;-82
2023/09/27 03:53:58;;;;;;;;;;;17.60;90.00;;;17.76;54.71;99121.88;5013722;28;123154;-84
2023/09/27 03:56:26;;;;;;;;;;;17.50;90.00;;;17.74;54.90;99123.38;5025283;27;114267;-84
2023/09/27 03:58:53;;;;;;;;;;;17.50;90.10;;;17.71;54.82;99124.09;5014136;27;113517;-83
2023/09/27 04:01:19;;;;;;;;;;;17.50;90.20;;;17.71;54.94;99129.69;5022841;28;124780;-83
2023/09/27 04:03:46;;;;;;;;;;;17.40;90.10;;;17.70;54.83;99122.44;5028373;27;124033;-85
2023/09/27 04:06:12;;;;;;;;;;;17.40;90.20;;;17.67;55.00;99126.75;5030811;27;116148;-84
2023/09/27 04:08:38;;;;;;;;;;;17.40;90.20;;;17.65;55.07;99127.13;5028840;27;114633;-84
2023/09/27 04:11:06;;;;;;;;;;;17.40;90.20;;;17.64;54.91;99119.06;5054822;27;124089;-83
2023/09/27 04:13:32;;;;;;;;;;;17.40;90.20;;;17.63;55.11;99126.66;5025375;27;124089;-84
2023/09/27 04:15:59;;;;;;;;;;;17.40;90.30;;;17.62;55.22;99119.44;5049736;27;114549;-80
2023/09/27 04:18:27;;;;;;;;;;;17.40;90.30;;;17.62;55.24;99122.25;5042738;27;113887;-84
2023/09/27 04:20:53;;;;;;;;;;;17.40;90.30;;;17.58;55.06;99118.50;5030556;27;124734;-86
2023/09/27 04:23:20;;;;;;;;;;;17.30;90.30;;;17.55;55.41;99127.59;5024412;27;124411;-87
2023/09/27 04:25:46;;;;;;;;;;;17.30;90.30;;;17.53;55.28;99127.13;5021971;27;114261;-85
2023/09/27 04:28:13;;;;;;;;;;;17.30;90.40;;;17.54;55.45;99130.72;5027860;27;113580;-84
2023/09/27 04:30:39;;;;;;;;;;;17.30;90.50;;;17.52;55.59;99131.09;5038687;27;124387;-84
2023/09/27 04:33:05;;;;;;;;;;;17.30;90.50;;;17.52;55.54;99124.69;5035208;27;123014;-83
2023/09/27 04:35:31;;;;;;;;;;;17.30;90.60;;;17.50;55.53;99130.63;5042058;27;114425;-83
2023/09/27 04:38:00;;;;;;;;;;;17.20;90.60;;;17.49;55.73;99129.00;5028109;27;113881;-85
2023/09/27 04:40:26;;;;;;;;;;;17.20;90.60;;;17.48;55.72;99132.94;5027703;27;125832;-83
2023/09/27 04:42:53;;;;;;;;;;;17.20;90.70;;;17.48;55.77;99137.72;5028118;27;124655;-82
2023/09/27 04:45:19;;;;;;;;;;;17.20;90.70;;;17.45;55.76;99137.25;5028404;27;114351;-82
2023/09/27 04:47:45;;;;;;;;;;;17.20;90.80;;;17.45;55.81;99139.25;5061123;27;113700;-83
2023/09/27 04:50:12;;;;;;;;;;;17.20;90.80;;;17.44;55.83;99144.00;5027940;27;124198;-80
2023/09/27 04:52:40;;;;;;;;;;;17.20;90.80;;;17.42;55.90;99149.13;5031135;27;124972;-83
2023/09/27 04:55:12;;;;;;;;;;;17.20;90.90;;;17.39;56.04;99143.44;5031191;27;114885;-83
2023/09/27 04:57:38;;;;;;;;;;;17.20;90.90;;;17.39;56.10;99157.41;5020969;27;112761;-86
2023/09/27 05:00:14;;;;;;;;;;;16.80;90.80;;;17.39;56.12;99160.19;5023794;27;124336;-81
2023/09/27 05:02:41;;;;;;;;;;;17.10;91.00;;;17.40;55.97;99159.03;5038616;27;124816;-82
2023/09/27 05:05:08;;;;;;;;;;;17.10;91.00;;;17.40;56.12;99156.22;5027621;27;114619;-84
2023/09/27 05:07:37;;;;;;;;;;;17.10;91.10;;;17.39;56.00;99158.22;5017400;27;113119;-83
2023/09/27 05:10:03;;;;;;;;;;;17.10;91.10;;;17.37;56.04;99159.72;5019493;27;124339;-84
2023/09/27 05:12:30;;;;;;;;;;;17.10;91.10;;;17.34;56.11;99163.22;5031674;27;123654;-81
2023/09/27 05:14:57;;;;;;;;;;;17.10;91.10;;;17.34;56.29;99163.22;5028266;27;115057;-83
2023/09/27 05:17:28;;;;;;;;;;;17.10;91.10;;;17.32;56.25;99165.53;5030078;27;113964;-83
2023/09/27 05:19:55;;;;;;;;;;;17.10;91.20;;;17.31;56.78;99173.09;5027409;27;124369;-83
2023/09/27 05:22:21;;;;;;;;;;;17.00;91.30;;;17.23;56.82;99174.84;5029074;27;123322;-84
2023/09/27 05:24:49;;;;;;;;;;;17.00;91.40;;;17.13;56.87;99186.47;5004291;28;113640;-82
2023/09/27 05:27:15;;;;;;;;;;;16.90;91.50;;;17.03;57.50;99184.13;5036584;27;113675;-80
2023/09/27 05:29:42;;;;;;;;;;;16.80;91.80;;;16.91;57.89;99186.91;5019701;27;124837;-84
2023/09/27 05:32:08;;;;;;;;;;;16.70;92.10;;;16.82;58.31;99188.94;5032269;27;125097;-82
2023/09/27 05:34:35;;;;;;;;;;;16.60;92.10;;;16.75;58.42;99193.09;5046368;27;115319;-83
2023/09/27 05:37:01;;;;;;;;;;;16.50;92.20;;;16.71;58.30;99192.16;5044616;27;113465;-81
2023/09/27 05:39:28;;;;;;;;;;;16.50;92.30;;;16.65;58.52;99196.31;5065378;27;124651;-83
2023/09/27 05:41:54;;;;;;;;;;;16.40;92.50;;;16.61;58.74;99197.34;5017169;27;124517;-82
2023/09/27 05:44:20;;;;;;;;;;;16.40;92.50;;;16.58;59.27;99196.06;5021542;27;115586;-81
2023/09/27 05:46:47;;;;;;;;;;;16.30;92.80;;;16.56;58.93;99192.81;5059045;27;114622;-82
2023/09/27 05:49:14;;;;;;;;;;;16.30;92.80;;;16.57;59.19;99200.81;5031447;27;125148;-80
2023/09/27 05:51:41;;;;;;;;;;;16.30;92.90;;;16.58;59.23;99210.03;5057703;27;124643;-81
2023/09/27 05:54:07;;;;;;;;;;;16.30;92.90;;;16.59;59.24;99199.66;5030071;27;113848;-79
2023/09/27 05:56:37;;;;;;;;;;;16.30;93.00;;;16.58;59.29;99196.06;5069683;27;114033;-81
2023/09/27 05:59:08;;;;;;;;;;;16.30;93.00;;;16.62;59.32;99191.41;5028454;27;124666;-82
2023/09/27 06:01:35;;;;;;;;;;;16.40;92.90;;;16.71;59.00;99194.97;5026706;27;123848;-80
2023/09/27 06:04:02;;;;;;;;;;;16.40;92.90;;;16.82;59.14;99198.16;5025922;28;114500;-82
2023/09/27 06:06:29;;;;;;;;;;;16.50;93.00;;;16.94;58.86;99195.38;5029089;27;114535;-84
2023/09/27 06:08:58;;;;;;;;;;;16.60;93.00;;;17.00;58.55;99190.38;5045307;27;124568;-84
2023/09/27 06:11:24;;;;;;;;;;;16.70;92.80;;;17.07;58.35;99201.81;5017917;27;124033;-81
2023/09/27 06:13:51;;;;;;;;;;;16.80;92.70;;;17.12;58.10;99209.97;5018182;27;114758;-84
2023/09/27 06:16:17;;;;;;;;;;;16.80;92.60;;;17.18;58.00;99205.78;5028149;27;112779;-82
2023/09/27 06:18:43;;;;;;;;;;;16.90;92.60;;;17.27;57.95;99199.28;5010191;27;123380;-82
2023/09/27 06:21:09;;;;;;;;;;;16.90;92.60;;;17.33;58.00;99204.31;5060412;27;123816;-84
2023/09/27 06:23:36;;;;;;;;;;;17.00;92.60;;;17.40;57.46;99206.50;5030469;27;113774;-83
2023/09/27 06:26:02;;;;;;;;;;;17.10;92.50;;;17.48;57.32;99204.78;5037272;27;113753;-84
2023/09/27 06:28:28;;;;;;;;;;;17.10;92.40;;;17.51;57.16;99215.25;5028934;27;124266;-84
2023/09/27 06:30:55;;;;;;;;;;;17.10;92.40;;;17.53;57.13;99208.16;5032516;27;124481;-84
2023/09/27 06:33:21;;;;;;;;;;;17.20;92.30;;;17.59;56.91;99217.91;5025525;28;116031;-83
2023/09/27 06:35:47;;;;;;;;;;;17.20;92.30;;;17.62;56.85;99208.88;5030413;27;114640;-84
2023/09/27 06:38:19;;;;;;;;;;;17.30;92.20;;;17.69;56.67;99221.44;5028019;27;124763;-83
2023/09/27 06:40:45;;;;;;;;;;;17.30;92.10;;;17.74;56.66;99229.59;5031686;27;123136;-82
2023/09/27 06:43:11;;;;;;;;;;;17.40;92.20;;;17.79;56.38;99221.00;5028781;27;114425;-82
2023/09/27 06:45:39;;;;;;;;;;;17.40;92.10;;;17.87;56.64;99222.84;5030356;27;113779;-84
2023/09/27 06:48:05;;;;;;;;;;;17.50;92.10;;;17.96;56.12;99226.31;5047309;27;123820;-84
2023/09/27 06:50:33;;;;;;;;;;;17.50;92.00;;;18.01;55.99;99222.47;5030174;28;124316;-80
2023/09/27 06:53:02;;;;;;;;;;;17.60;91.90;;;18.05;55.76;99213.03;5030047;27;114475;-79
2023/09/27 06:55:31;;;;;;;;;;;17.60;91.90;;;18.11;55.88;99219.22;5048046;27;114496;-81
2023/09/27 06:57:57;;;;;;;;;;;17.70;91.90;;;18.19;55.69;99220.22;5039226;27;123860;-79
2023/09/27 07:00:26;;;;;;;;;;;17.70;91.80;;;18.24;55.42;99218.00;5038748;27;123065;-83
2023/09/27 07:02:52;;;;;;;;;;;17.80;91.80;;;18.31;55.46;99215.41;5035827;27;114504;-83
2023/09/27 07:05:22;;;;;;;;;;;17.80;91.70;;;18.36;55.15;99211.56;5067827;27;113726;-79
2023/09/27 07:07:49;;;;;;;;;;;17.90;91.70;;;18.43;55.02;99217.38;5029810;27;124354;-78
2023/09/27 07:10:16;;;;;;;;;;;18.00;91.70;;;18.51;55.04;99221.16;5032356;27;124005;-83
2023/09/27 07:12:42;;;;;;;;;;;18.00;91.60;;;18.55;54.77;99206.13;5063532;27;114619;-82
2023/09/27 07:15:13;;;;;;;;;;;18.00;91.50;;;18.60;54.66;99205.06;5029070;27;113624;-85
2023/09/27 07:17:47;;;;;;;;;;;18.10;91.50;;;18.67;54.53;99212.84;5029276;27;124188;-81
2023/09/27 07:22:51;;;;;;;;;;;18.10;91.40;;;18.64;54.57;99211.56;5034608;27;115870;-79
2023/09/27 07:25:20;;;;;;;;;;;18.20;91.40;;;18.70;54.93;99212.16;5029866;27;115334;-86
2023/09/27 07:27:48;;;;;;;;;;;18.20;91.60;;;18.77;54.58;99213.16;5063479;27;124323;-79
2023/09/27 07:30:18;;;;;;;;;;;18.30;91.60;;;18.87;54.54;99220.25;5036794;27;124026;-81
2023/09/27 07:32:48;;;;;;;;;;;18.40;91.50;;;18.96;54.21;99212.47;5033792;27;114525;-83
2023/09/27 07:35:16;;;;;;;;;;;18.40;91.40;;;19.07;54.21;99217.56;5031594;27;113994;-83
2023/09/27 07:37:45;;;;;;;;;;;18.50;91.40;;;19.10;54.01;99214.03;5058558;27;124383;-81
2023/09/27 07:40:14;;;;;;;;;;;18.50;91.30;;;19.11;53.79;99210.91;5059747;27;124583;-84
2023/09/27 07:42:42;;;;;;;;;;;18.60;91.20;;;19.15;53.97;99208.97;5027109;27;114510;-83
2023/09/27 07:45:20;;;;;;;;;;;18.60;91.20;;;19.16;53.86;99199.44;5028042;27;113666;-82
2023/09/27 07:47:50;;;;;;;;;;;18.60;91.10;;;19.18;53.83;99199.03;5038125;27;124857;-84
2023/09/27 07:50:21;;;;;;;;;;;18.60;91.10;;;19.20;53.71;99197.50;5059885;27;123315;-82
2023/09/27 07:52:47;;;;;;;;;;;18.70;91.00;;;19.21;53.67;99201.16;5044091;27;114536;-83
2023/09/27 07:55:17;;;;;;;;;;;18.70;91.00;;;19.24;53.58;99203.22;5065121;27;113570;-84
2023/09/27 07:57:43;;;;;;;;;;;18.80;91.00;;;19.32;53.33;99202.25;5072486;27;124114;-80
2023/09/27 08:00:15;;;;;;;;;;;18.80;91.00;;;19.38;53.68;99212.00;5032318;27;125015;-82
2023/09/27 08:02:46;;;;;;;;;;;18.90;90.90;;;19.44;53.28;99206.94;5015668;27;114131;-82
2023/09/27 08:05:16;;;;;;;;;;;19.00;90.90;;;19.52;53.37;99199.50;5031637;27;114147;-81
2023/09/27 08:07:45;;;;;;;;;;;19.00;90.80;;;19.59;53.30;99202.50;5033321;27;123965;-82
2023/09/27 08:10:12;;;;;;;;;;;19.10;90.80;;;19.64;53.23;99202.22;5029318;27;124971;-83
2023/09/27 08:12:39;;;;;;;;;;;19.10;90.70;;;19.66;52.99;99188.69;5030777;27;115488;-82
2023/09/27 08:15:06;;;;;;;;;;;19.10;90.70;;;19.68;52.81;99189.13;5032705;27;114694;-85
2023/09/27 08:17:33;;;;;;;;;;;19.10;90.70;;;19.69;53.03;99181.53;5002136;28;123521;-83
2023/09/27 08:19:59;;;;;;;;;;;19.10;90.60;;;19.68;52.68;99186.31;5027226;27;123868;-81
2023/09/27 08:22:26;;;;;;;;;;;19.10;90.70;;;19.69;53.22;99193.56;5026596;27;114527;-79
2023/09/27 08:24:52;;;;;;;;;;;19.20;90.70;;;19.72;52.67;99181.63;5034253;27;113650;-78
2023/09/27 08:27:18;;;;;;;;;;;19.20;90.60;;;19.79;52.99;99175.38;5037256;27;124148;-79
2023/09/27 08:29:45;;;;;;;;;;;19.30;90.60;;;19.86;52.69;99179.16;5047846;27;124692;-80
2023/09/27 08:32:12;;;;;;;;;;;19.40;90.60;;;19.93;52.62;99170.06;5028165;27;114780;-83
2023/09/27 08:34:39;;;;;;;;;;;19.50;90.60;;;20.01;52.90;99165.44;5017895;27;114201;-82
2023/09/27 08:37:06;;;;;;;;;;;19.50;90.50;;;20.07;52.27;99153.59;5013952;27;123328;-82
2023/09/27 08:39:32;;;;;;;;;;;19.60;90.50;;;20.16;52.33;99161.78;5016417;27;124930;-82
2023/09/27 08:42:01;;;;;;;;;;;19.70;90.50;;;20.22;52.54;99163.09;5018489;27;112778;-80
2023/09/27 08:44:28;;;;;;;;;;;19.70;90.40;;;20.25;51.91;99167.97;5023517;27;113698;-79
2023/09/27 08:46:57;;;;;;;;;;;19.80;90.40;;;20.29;52.08;99160.44;5048185;27;124792;-82
2023/09/27 08:49:24;;;;;;;;;;;19.80;90.30;;;20.34;52.25;99150.94;5028817;27;123084;-83
2023/09/27 08:51:53;;;;;;;;;;;19.90;90.30;;;20.40;51.86;99154.25;5045937;27;114838;-81
2023/09/27 08:54:22;;;;;;;;;;;19.90;90.20;;;20.43;51.49;99153.50;5006172;28;113703;-81
2023/09/27 08:56:53;;;;;;;;;;;19.90;90.10;;;20.47;52.07;99144.00;5027044;27;123928;-82
2023/09/27 08:59:22;;;;;;;;;;;20.00;90.20;;;20.53;51.64;99136.06;5023081;27;124904;-82
2023/09/27 09:01:53;;;;;;;;;;;20.00;90.10;;;20.57;51.75;99136.97;5034804;27;116185;-82
2023/09/27 09:04:19;;;;;;;;;;;20.10;90.10;;;20.62;51.69;99131.06;5050469;27;114693;-83
2023/09/27 09:06:46;;;;;;;;;;;20.10;90.10;;;20.68;51.57;99138.00;5017364;27;124271;-82
2023/09/27 09:09:14;;;;;;;;;;;20.20;90.10;;;20.75;51.49;99126.09;5020844;27;124121;-83
2023/09/27 09:11:47;;;;;;;;;;;20.20;90.00;;;20.80;50.97;99119.38;5028257;27;114586;-83
2023/09/27 09:14:18;;;;;;;;;;;20.30;89.80;;;20.83;51.35;99118.63;5035794;27;113796;-83
2023/09/27 09:16:51;;;;;;;;;;;20.40;89.60;;;20.87;51.24;99119.47;5028314;27;123751;-81
2023/09/27 09:19:26;;;;;;;;;;;20.40;89.50;;;20.93;51.01;99120.81;5041671;27;124128;-82
2023/09/27 09:21:59;;;;;;;;;;;20.50;89.40;;;21.01;50.92;99110.50;5020655;27;114603;-81
2023/09/27 09:24:25;;;;;;;;;;;20.50;89.30;;;21.07;50.99;99109.81;5026427;27;113841;-83
2023/09/27 09:27:14;;;;;;;;;;;20.60;89.40;;;21.10;50.52;99105.44;5033152;27;123488;-79
2023/09/27 09:29:52;;;;;;;;;;;20.60;89.00;;;21.15;50.69;99105.13;5032150;27;124626;-81
2023/09/27 09:32:20;;;;;;;;;;;20.70;89.00;;;21.22;50.44;99101.59;5060643;27;115025;-82
2023/09/27 09:34:50;;;;;;;;;;;20.80;88.90;;;21.28;50.40;99098.13;5043018;27;113085;-82
2023/09/27 09:37:21;;;;;;;;;;;20.80;88.90;;;21.34;50.44;99090.19;5026282;27;124140;-78
2023/09/27 09:39:52;;;;;;;;;;;20.90;89.00;;;21.40;50.52;99094.31;5028596;27;123661;-79
2023/09/27 09:42:34;;;;;;;;;;;20.90;89.10;;;21.47;50.46;99088.00;5063391;27;114461;-80
2023/09/27 09:45:08;;;;;;;;;;;21.00;89.20;;;21.53;50.37;99076.03;5063590;27;113905;-79
2023/09/27 09:47:37;;;;;;;;;;;21.00;89.10;;;21.59;50.24;99068.88;5007361;27;124153;-79
2023/09/27 09:50:16;;;;;;;;;;;21.10;89.20;;;21.66;50.56;99067.38;5012466;27;123454;-81
2023/09/27 09:53:01;;;;;;;;;;;21.20;89.20;;;21.68;50.24;99068.63;5035022;27;115538;-80
2023/09/27 09:55:34;;;;;;;;;;;21.20;89.00;;;21.71;50.32;99064.22;5037517;27;114995;-81
2023/09/27 09:58:13;;;;;;;;;;;21.20;89.00;;;21.75;50.29;99065.09;5012125;27;123279;-80
2023/09/27 10:00:48;;;;;;;;;;;21.30;89.20;;;21.80;50.51;99061.94;5035371;27;123601;-80
2023/09/27 10:03:20;;;;;;;;;;;21.30;89.20;;;21.89;50.30;99065.28;5034729;27;114366;-78
2023/09/27 10:05:50;;;;;;;;;;;21.40;89.20;;;21.95;50.46;99058.13;5057113;27;113847;-80
2023/09/27 10:08:17;;;;;;;;;;;21.40;89.00;;;22.04;50.08;99052.22;5035500;27;125304;-81
2023/09/27 10:10:46;;;;;;;;;;;21.50;88.90;;;22.11;49.64;99059.91;5033980;27;124292;-79
2023/09/27 10:13:18;;;;;;;;;;;21.60;88.60;;;22.16;49.72;99057.56;5026867;27;115587;-79
2023/09/27 10:15:44;;;;;;;;;;;21.60;88.20;;;22.27;49.34;99052.09;5031216;27;113824;-80
2023/09/27 10:18:23;;;;;;;;;;;21.70;87.90;;;22.36;49.13;99048.97;5058441;27;124418;-80
2023/09/27 10:21:05;;;;;;;;;;;21.80;87.90;;;22.47;48.91;99041.47;5038807;27;123369;-81
2023/09/27 10:23:44;;;;;;;;;;;21.90;87.60;;;22.59;48.46;99041.16;5033120;27;113564;-80
2023/09/27 10:26:20;;;;;;;;;;;22.00;87.00;;;22.68;47.78;99038.03;5027241;27;114175;-82
2023/09/27 10:29:06;;;;;;;;;;;22.10;86.50;;;22.77;47.60;99030.06;5037968;27;124368;-82
2023/09/27 10:32:00;;;;;;;;;;;22.20;86.00;;;22.89;47.52;99017.69;5028779;27;124402;-80
2023/09/27 10:34:29;;;;;;;;;;;22.30;85.90;;;23.02;47.38;99029.50;5034031;27;113537;-81
2023/09/27 10:36:56;;;;;;;;;;;22.40;85.50;;;23.15;47.20;99016.72;5032951;27;113840;-83
2023/09/27 10:39:25;;;;;;;;;;;22.50;85.40;;;23.29;47.12;99016.81;5044889;27;123932;-83
2023/09/27 10:41:54;;;;;;;;;;;22.70;85.30;;;23.41;46.61;99009.25;5031237;27;124234;-80
2023/09/27 10:44:30;;;;;;;;;;;22.80;84.70;;;23.54;45.57;99002.06;5031806;27;115311;-78
2023/09/27 10:47:01;;;;;;;;;;;22.90;83.50;;;23.68;45.19;99004.13;5035897;27;114507;-79
2023/09/27 10:49:37;;;;;;;;;;;23.10;82.90;;;23.78;44.66;98998.56;5030143;27;124995;-80
2023/09/27 10:52:19;;;;;;;;;;;23.20;81.90;;;23.88;45.02;98999.00;5033720;27;124222;-78
2023/09/27 10:54:45;;;;;;;;;;;23.30;82.10;;;24.02;44.70;98994.22;5027841;27;113633;-78
2023/09/27 10:57:13;;;;;;;;;;;23.40;81.80;;;24.19;44.47;98981.38;5034279;27;113760;-79
2023/09/27 10:59:40;;;;;;;;;;;23.60;81.50;;;24.34;43.83;98987.03;5025116;27;123725;-78
2023/09/27 11:02:09;;;;;;;;;;;23.70;80.90;;;24.46;43.52;98986.69;5037220;27;124034;-78
2023/09/27 11:04:38;;;;;;;;;;;23.80;80.20;;;24.61;43.27;98988.31;5042473;27;114760;-79
2023/09/27 11:07:04;;;;;;;;;;;23.90;79.90;;;24.76;42.75;98980.66;5035620;27;113182;-79
2023/09/27 11:09:42;;;;;;;;;;;24.10;79.30;;;24.92;42.41;98985.91;5032432;27;123246;-79
2023/09/27 11:12:08;;;;;;;;;;;24.20;79.00;;;25.09;41.90;98982.25;5027714;27;123888;-79
2023/09/27 11:14:43;;;;;;;;;;;24.40;78.60;;;25.24;40.94;98979.44;5032908;27;115786;-79
2023/09/27 11:17:14;;;;;;;;;;;24.50;76.80;;;25.36;40.46;98981.81;5029405;27;114461;-80